createdAt,value
2016-12-19T00:01:00.967Z,21.04
2016-12-19T00:02:10.964Z,20.94
2016-12-19T00:03:20.900Z,20.56
2016-12-19T00:04:30.532Z,20.94
2016-12-19T00:05:40.168Z,21.04
2016-12-19T00:06:50.415Z,20.56
2016-12-19T00:08:00.341Z,20.65
2016-12-19T00:09:10.281Z,21.23
2016-12-19T00:10:20.522Z,21.04
2016-12-19T00:11:30.181Z,20.56
2016-12-19T00:12:40.108Z,20.65
2016-12-19T00:13:49.745Z,20.65
2016-12-19T00:14:59.384Z,21.42
2016-12-19T00:16:09.311Z,21.23
2016-12-19T00:17:18.943Z,20.65
2016-12-19T00:18:28.883Z,20.56
2016-12-19T00:19:39.134Z,20.65
2016-12-19T00:20:49.071Z,21.23
2016-12-19T00:21:59.003Z,21.23
2016-12-19T00:23:09.235Z,21.04
2016-12-19T00:24:18.863Z,20.94
2016-12-19T00:25:29.111Z,20.65
2016-12-19T00:26:39.358Z,20.94
2016-12-19T00:27:49.006Z,20.65
2016-12-19T00:28:58.629Z,21.04
2016-12-19T00:30:08.562Z,21.04
2016-12-19T00:31:18.179Z,21.23
2016-12-19T00:32:28.446Z,20.94
2016-12-19T00:33:38.083Z,20.65
2016-12-19T00:34:48.015Z,20.65
2016-12-19T00:35:57.950Z,20.56
2016-12-19T00:37:08.204Z,20.94
2016-12-19T00:38:18.131Z,21.23
2016-12-19T00:39:27.745Z,20.65
2016-12-19T00:40:37.786Z,20.56
2016-12-19T00:41:47.712Z,21.04
2016-12-19T00:42:57.642Z,20.56
2016-12-19T00:44:07.582Z,21.14
2016-12-19T00:45:17.825Z,20.94
2016-12-19T00:46:27.487Z,21.04
2016-12-19T00:47:37.742Z,20.56
2016-12-19T00:48:48.021Z,20.65
2016-12-19T00:49:57.640Z,21.14
2016-12-19T00:51:06.354Z,20.56
2016-12-19T00:52:15.984Z,20.65
2016-12-19T00:53:25.606Z,20.94
2016-12-19T00:54:35.545Z,21.04
2016-12-19T00:55:45.471Z,21.14
2016-12-19T00:56:55.417Z,20.56
2016-12-19T00:58:05.663Z,20.65
2016-12-19T00:59:15.908Z,20.65
2016-12-19T01:00:25.559Z,20.56
2016-12-19T01:01:34.900Z,21.23
2016-12-19T01:02:44.840Z,21.04
2016-12-19T01:03:54.772Z,20.65
2016-12-19T01:05:04.718Z,20.56
2016-12-19T01:06:14.640Z,20.65
2016-12-19T01:07:24.580Z,20.56
2016-12-19T01:08:34.561Z,20.94
2016-12-19T01:09:44.498Z,21.14
2016-12-19T01:10:54.431Z,20.65
2016-12-19T01:12:04.087Z,20.85
2016-12-19T01:13:13.710Z,20.56
2016-12-19T01:14:23.646Z,20.94
2016-12-19T01:15:33.269Z,20.94
2016-12-19T01:16:42.881Z,21.04
2016-12-19T01:17:52.501Z,21.14
2016-12-19T01:19:02.452Z,20.65
2016-12-19T01:20:12.686Z,21.04
2016-12-19T01:21:22.929Z,20.94
2016-12-19T01:22:32.874Z,20.65
2016-12-19T01:23:42.519Z,20.65
2016-12-19T01:24:52.457Z,21.04
2016-12-19T01:26:02.394Z,21.23
2016-12-19T01:27:12.340Z,21.33
2016-12-19T01:28:21.982Z,21.04
2016-12-19T01:29:31.937Z,20.65
2016-12-19T01:30:41.885Z,20.94
2016-12-19T01:31:52.135Z,20.94
2016-12-19T01:33:02.121Z,21.14
2016-12-19T01:34:12.373Z,21.04
2016-12-19T01:35:22.613Z,20.65
2016-12-19T01:36:32.536Z,20.94
2016-12-19T01:37:42.775Z,21.23
2016-12-19T01:38:53.028Z,20.94
2016-12-19T01:40:02.965Z,21.04
2016-12-19T01:41:13.163Z,20.65
2016-12-19T01:42:23.105Z,21.14
2016-12-19T01:43:33.025Z,20.94
2016-12-19T01:44:42.970Z,21.04
2016-12-19T01:45:53.214Z,20.94
2016-12-19T01:47:03.441Z,20.94
2016-12-19T01:48:13.467Z,20.56
2016-12-19T01:49:23.713Z,21.04
2016-12-19T01:50:33.955Z,20.65
2016-12-19T01:51:43.882Z,20.65
2016-12-19T01:52:53.821Z,20.56
2016-12-19T01:54:03.448Z,21.04
2016-12-19T01:55:12.449Z,20.65
2016-12-19T01:56:21.457Z,20.56
2016-12-19T01:57:30.784Z,21.04
2016-12-19T01:58:41.021Z,20.65
2016-12-19T01:59:50.961Z,21.14
2016-12-19T02:01:00.587Z,20.56
2016-12-19T02:02:10.532Z,21.04
2016-12-19T02:03:20.462Z,21.23
2016-12-19T02:04:29.765Z,21.14
2016-12-19T02:05:39.703Z,20.94
2016-12-19T02:06:49.024Z,21.23
2016-12-19T02:07:58.942Z,20.94
2016-12-19T02:09:08.576Z,20.94
2016-12-19T02:10:18.522Z,20.65
2016-12-19T02:11:28.142Z,21.23
2016-12-19T02:12:38.087Z,21.04
2016-12-19T02:13:47.729Z,20.65
2016-12-19T02:14:57.355Z,20.56
2016-12-19T02:16:06.983Z,21.14
2016-12-19T02:17:16.611Z,20.56
2016-12-19T02:18:26.225Z,21.14
2016-12-19T02:19:36.171Z,20.56
2016-12-19T02:20:45.831Z,20.94
2016-12-19T02:21:55.754Z,20.56
2016-12-19T02:23:05.712Z,20.56
2016-12-19T02:24:15.963Z,21.04
2016-12-19T02:25:26.192Z,20.94
2016-12-19T02:26:36.469Z,21.23
2016-12-19T02:27:46.403Z,20.65
2016-12-19T02:28:56.644Z,20.65
2016-12-19T02:30:05.693Z,21.04
2016-12-19T02:31:15.939Z,20.56
2016-12-19T02:32:26.189Z,20.65
2016-12-19T02:33:36.437Z,20.65
2016-12-19T02:34:46.366Z,20.94
2016-12-19T02:35:56.311Z,20.56
2016-12-19T02:37:05.939Z,21.23
2016-12-19T02:38:16.217Z,20.65
2016-12-19T02:39:26.142Z,21.14
2016-12-19T02:40:36.118Z,20.56
2016-12-19T02:41:45.745Z,20.65
2016-12-19T02:42:55.677Z,20.65
2016-12-19T02:44:05.943Z,20.56
2016-12-19T02:45:15.871Z,20.94
2016-12-19T02:46:25.803Z,21.23
2016-12-19T02:47:35.447Z,21.14
2016-12-19T02:48:44.765Z,20.65
2016-12-19T02:49:54.715Z,20.56
2016-12-19T02:51:04.655Z,20.94
2016-12-19T02:52:14.278Z,21.23
2016-12-19T02:53:24.224Z,20.65
2016-12-19T02:54:34.469Z,21.14
2016-12-19T02:55:44.087Z,20.75
2016-12-19T02:56:54.330Z,20.56
2016-12-19T02:58:04.576Z,21.14
2016-12-19T02:59:14.520Z,20.56
2016-12-19T03:00:24.144Z,20.94
2016-12-19T03:01:34.075Z,20.65
2016-12-19T03:02:43.404Z,20.56
2016-12-19T03:03:53.337Z,20.65
2016-12-19T03:05:03.588Z,21.23
2016-12-19T03:06:13.818Z,20.56
2016-12-19T03:07:23.759Z,20.94
2016-12-19T03:08:33.396Z,21.23
2016-12-19T03:09:43.361Z,20.65
2016-12-19T03:10:52.670Z,21.04
2016-12-19T03:12:02.623Z,21.14
2016-12-19T03:13:12.568Z,21.04
2016-12-19T03:14:22.194Z,21.23
2016-12-19T03:15:32.119Z,20.56
2016-12-19T03:16:41.735Z,20.85
2016-12-19T03:17:51.888Z,20.65
2016-12-19T03:19:02.126Z,20.85
2016-12-19T03:20:12.093Z,20.85
2016-12-19T03:21:22.027Z,20.56
2016-12-19T03:22:31.971Z,21.23
2016-12-19T03:23:41.908Z,20.56
2016-12-19T03:24:51.837Z,20.65
2016-12-19T03:26:01.777Z,21.23
2016-12-19T03:27:11.405Z,20.85
2016-12-19T03:28:21.340Z,20.85
2016-12-19T03:29:31.306Z,21.14
2016-12-19T03:30:41.241Z,21.23
2016-12-19T03:31:51.167Z,20.56
2016-12-19T03:33:00.794Z,20.56
2016-12-19T03:34:10.423Z,21.14
2016-12-19T03:35:20.361Z,21.04
2016-12-19T03:36:30.596Z,20.85
2016-12-19T03:37:40.835Z,21.14
2016-12-19T03:38:50.460Z,20.75
2016-12-19T03:40:00.109Z,20.56
2016-12-19T03:41:09.750Z,20.85
2016-12-19T03:42:20.005Z,21.23
2016-12-19T03:43:29.951Z,20.65
2016-12-19T03:44:40.347Z,20.56
2016-12-19T03:45:50.591Z,20.85
2016-12-19T03:47:00.870Z,21.23
2016-12-19T03:48:10.208Z,20.65
2016-12-19T03:49:20.150Z,20.75
2016-12-19T03:50:29.769Z,20.56
2016-12-19T03:51:39.394Z,21.23
2016-12-19T03:52:48.701Z,20.56
2016-12-19T03:53:58.328Z,21.23
2016-12-19T03:55:07.973Z,21.14
2016-12-19T03:56:17.918Z,20.65
2016-12-19T03:57:28.374Z,21.23
2016-12-19T03:58:38.015Z,20.85
2016-12-19T03:59:47.952Z,20.85
2016-12-19T04:00:57.885Z,20.85
2016-12-19T04:02:07.521Z,20.85
2016-12-19T04:03:17.465Z,21.23
2016-12-19T04:04:27.718Z,20.85
2016-12-19T04:05:37.389Z,21.14
2016-12-19T04:06:46.735Z,20.56
2016-12-19T04:07:57.022Z,20.94
2016-12-19T04:09:06.971Z,21.14
2016-12-19T04:10:17.207Z,21.04
2016-12-19T04:11:26.819Z,20.65
2016-12-19T04:12:36.743Z,20.56
2016-12-19T04:13:46.381Z,21.14
2016-12-19T04:14:56.301Z,21.04
2016-12-19T04:16:05.916Z,21.23
2016-12-19T04:17:16.157Z,20.56
2016-12-19T04:18:26.454Z,20.75
2016-12-19T04:19:36.409Z,20.94
2016-12-19T04:20:46.038Z,20.56
2016-12-19T04:21:55.999Z,21.14
2016-12-19T04:23:05.939Z,20.65
2016-12-19T04:24:15.567Z,21.14
2016-12-19T04:25:25.807Z,21.14
2016-12-19T04:26:36.048Z,20.56
2016-12-19T04:27:45.686Z,20.56
2016-12-19T04:28:55.946Z,20.94
2016-12-19T04:30:05.578Z,20.65
2016-12-19T04:31:15.509Z,21.04
2016-12-19T04:32:25.760Z,20.94
2016-12-19T04:33:35.699Z,21.14
2016-12-19T04:34:45.328Z,21.14
2016-12-19T04:35:54.959Z,20.65
2016-12-19T04:37:04.892Z,21.14
2016-12-19T04:38:14.214Z,21.14
2016-12-19T04:39:24.134Z,21.14
2016-12-19T04:40:34.385Z,21.14
2016-12-19T04:41:44.310Z,20.56
2016-12-19T04:42:54.234Z,20.94
2016-12-19T04:44:03.868Z,20.85
2016-12-19T04:45:13.813Z,20.85
2016-12-19T04:46:23.441Z,20.85
2016-12-19T04:47:33.370Z,21.14
2016-12-19T04:48:43.296Z,20.85
2016-12-19T04:49:53.218Z,20.85
2016-12-19T04:51:03.473Z,21.14
2016-12-19T04:52:14.265Z,21.14
2016-12-19T04:53:24.245Z,21.23
2016-12-19T04:54:34.498Z,21.14
2016-12-19T04:55:44.778Z,21.04
2016-12-19T04:56:54.710Z,21.14
2016-12-19T04:58:04.352Z,20.65
2016-12-19T04:59:13.667Z,20.85
2016-12-19T05:00:23.601Z,20.94
2016-12-19T05:01:33.852Z,20.85
2016-12-19T05:02:44.087Z,21.42
2016-12-19T05:03:54.035Z,21.33
2016-12-19T05:05:03.667Z,21.23
2016-12-19T05:06:12.989Z,21.14
2016-12-19T05:07:22.315Z,21.14
2016-12-19T05:08:32.285Z,21.33
2016-12-19T05:09:41.901Z,21.33
2016-12-19T05:10:51.837Z,21.42
2016-12-19T05:12:01.760Z,21.52
2016-12-19T05:13:11.698Z,21.61
2016-12-19T05:14:21.644Z,21.81
2016-12-19T05:15:31.271Z,21.81
2016-12-19T05:16:41.210Z,21.52
2016-12-19T05:17:50.833Z,21.61
2016-12-19T05:19:00.768Z,21.71
2016-12-19T05:20:11.206Z,21.81
2016-12-19T05:21:21.152Z,21.91
2016-12-19T05:22:30.474Z,21.71
2016-12-19T05:23:39.782Z,22.09
2016-12-19T05:24:50.020Z,21.81
2016-12-19T05:25:59.341Z,22.09
2016-12-19T05:27:09.587Z,21.81
2016-12-19T05:28:19.541Z,21.91
2016-12-19T05:29:29.799Z,21.91
2016-12-19T05:30:39.728Z,21.81
2016-12-19T05:31:49.351Z,22.09
2016-12-19T05:32:59.290Z,21.91
2016-12-19T05:34:10.541Z,21.91
2016-12-19T05:35:19.862Z,21.91
2016-12-19T05:36:29.801Z,21.71
2016-12-19T05:37:39.433Z,21.71
2016-12-19T05:38:49.366Z,21.91
2016-12-19T05:39:58.676Z,22.09
2016-12-19T05:41:08.635Z,22
2016-12-19T05:42:18.263Z,21.91
2016-12-19T05:43:28.331Z,22
2016-12-19T05:44:38.278Z,21.81
2016-12-19T05:45:48.217Z,21.91
2016-12-19T05:46:58.455Z,21.71
2016-12-19T05:48:08.396Z,21.81
2016-12-19T05:49:18.704Z,21.91
2016-12-19T05:50:28.126Z,21.61
2016-12-19T05:51:38.063Z,21.71
2016-12-19T05:52:47.690Z,21.52
2016-12-19T05:53:57.004Z,21.71
2016-12-19T05:55:06.953Z,21.91
2016-12-19T05:56:16.254Z,21.71
2016-12-19T05:57:26.502Z,21.81
2016-12-19T05:58:36.439Z,21.91
2016-12-19T05:59:46.370Z,21.61
2016-12-19T06:00:56.636Z,21.71
2016-12-19T06:02:06.560Z,21.71
2016-12-19T06:03:16.485Z,21.81
2016-12-19T06:04:26.116Z,21.52
2016-12-19T06:05:35.737Z,21.61
2016-12-19T06:06:45.681Z,21.71
2016-12-19T06:07:55.915Z,21.71
2016-12-19T06:09:06.165Z,21.71
2016-12-19T06:10:15.797Z,21.81
2016-12-19T06:11:25.775Z,21.71
2016-12-19T06:12:36.146Z,21.71
2016-12-19T06:13:46.415Z,21.81
2016-12-19T06:14:56.376Z,21.42
2016-12-19T06:16:06.007Z,21.81
2016-12-19T06:17:16.280Z,21.71
2016-12-19T06:18:25.917Z,21.81
2016-12-19T06:19:36.150Z,21.71
2016-12-19T06:20:46.403Z,21.81
2016-12-19T06:21:56.350Z,21.81
2016-12-19T06:23:05.994Z,21.42
2016-12-19T06:24:15.934Z,21.52
2016-12-19T06:25:26.212Z,21.71
2016-12-19T06:26:36.467Z,21.42
2016-12-19T06:27:46.403Z,21.42
2016-12-19T06:28:55.405Z,21.52
2016-12-19T06:30:05.659Z,21.52
2016-12-19T06:31:15.293Z,21.52
2016-12-19T06:32:25.556Z,21.52
2016-12-19T06:33:35.526Z,21.71
2016-12-19T06:34:45.481Z,21.52
2016-12-19T06:35:55.724Z,21.52
2016-12-19T06:37:05.365Z,21.42
2016-12-19T06:38:15.610Z,21.42
2016-12-19T06:39:25.556Z,21.52
2016-12-19T06:40:36.059Z,21.52
2016-12-19T06:41:46.391Z,21.81
2016-12-19T06:42:56.348Z,21.61
2016-12-19T06:44:06.582Z,21.71
2016-12-19T06:45:16.573Z,21.42
2016-12-19T06:46:26.825Z,21.81
2016-12-19T06:47:36.186Z,21.42
2016-12-19T06:48:46.123Z,21.71
2016-12-19T06:49:55.757Z,21.42
2016-12-19T06:51:05.377Z,21.52
2016-12-19T06:52:15.018Z,21.42
2016-12-19T06:53:24.646Z,21.71
2016-12-19T06:54:34.896Z,21.81
2016-12-19T06:55:44.831Z,21.52
2016-12-19T06:56:54.474Z,21.81
2016-12-19T06:58:04.415Z,21.71
2016-12-19T06:59:14.671Z,21.42
2016-12-19T07:00:24.928Z,21.42
2016-12-19T07:01:35.178Z,21.52
2016-12-19T07:02:45.124Z,21.71
2016-12-19T07:03:55.062Z,21.42
2016-12-19T07:05:04.391Z,21.81
2016-12-19T07:06:14.336Z,21.42
2016-12-19T07:07:23.661Z,21.42
2016-12-19T07:08:33.376Z,21.61
2016-12-19T07:09:43.075Z,21.42
2016-12-19T07:10:53.391Z,21.61
2016-12-19T07:12:03.351Z,21.42
2016-12-19T07:13:13.337Z,21.52
2016-12-19T07:14:22.669Z,21.42
2016-12-19T07:15:32.962Z,21.52
2016-12-19T07:16:43.231Z,21.71
2016-12-19T07:17:52.867Z,21.71
2016-12-19T07:19:03.160Z,21.42
2016-12-19T07:20:13.332Z,21.71
2016-12-19T07:21:23.268Z,21.81
2016-12-19T07:22:33.207Z,21.71
2016-12-19T07:23:42.843Z,21.81
2016-12-19T07:24:53.088Z,21.61
2016-12-19T07:26:02.743Z,21.61
2016-12-19T07:27:12.458Z,21.71
2016-12-19T07:28:22.395Z,21.71
2016-12-19T07:29:31.451Z,21.81
2016-12-19T07:30:40.836Z,21.61
2016-12-19T07:31:50.193Z,21.61
2016-12-19T07:33:00.490Z,21.61
2016-12-19T07:34:10.454Z,21.71
2016-12-19T07:35:20.721Z,21.81
2016-12-19T07:36:30.375Z,21.71
2016-12-19T07:37:39.750Z,21.81
2016-12-19T07:38:49.719Z,21.91
2016-12-19T07:40:00.005Z,21.71
2016-12-19T07:41:09.972Z,21.52
2016-12-19T07:42:20.246Z,21.71
2016-12-19T07:43:30.214Z,21.52
2016-12-19T07:44:40.471Z,21.61
2016-12-19T07:45:50.158Z,21.61
2016-12-19T07:47:00.160Z,21.52
2016-12-19T07:48:10.443Z,21.61
2016-12-19T07:49:20.691Z,21.81
2016-12-19T07:50:30.983Z,21.71
2016-12-19T07:51:41.035Z,21.71
2016-12-19T07:52:51.374Z,22
2016-12-19T07:54:01.627Z,21.81
2016-12-19T07:55:11.886Z,21.91
2016-12-19T07:56:22.240Z,21.91
2016-12-19T07:57:32.517Z,22
2016-12-19T07:58:41.914Z,22.09
2016-12-19T07:59:52.165Z,22.29
2016-12-19T08:01:02.124Z,22.29
2016-12-19T08:02:11.451Z,22.29
2016-12-19T08:03:21.778Z,22.09
2016-12-19T08:04:31.445Z,22.19
2016-12-19T08:05:41.386Z,22.09
2016-12-19T08:06:51.320Z,22
2016-12-19T08:08:01.581Z,22.29
2016-12-19T08:09:11.550Z,22.29
2016-12-19T08:10:21.501Z,22.19
2016-12-19T08:11:31.805Z,22.09
2016-12-19T08:12:41.751Z,22.09
2016-12-19T08:13:51.697Z,22.19
2016-12-19T08:15:01.611Z,22.29
2016-12-19T08:16:11.287Z,22.29
2016-12-19T08:17:20.942Z,22.29
2016-12-19T08:18:30.909Z,22.38
2016-12-19T08:19:41.204Z,22.29
2016-12-19T08:20:50.846Z,22.38
2016-12-19T08:22:01.144Z,22.09
2016-12-19T08:23:11.104Z,22.09
2016-12-19T08:24:21.395Z,22
2016-12-19T08:25:31.703Z,22.29
2016-12-19T08:26:41.962Z,22
2016-12-19T08:27:52.216Z,21.91
2016-12-19T08:29:01.876Z,22.09
2016-12-19T08:30:12.165Z,22.29
2016-12-19T08:31:22.120Z,22.19
2016-12-19T08:32:31.448Z,22.09
2016-12-19T08:33:41.387Z,22.09
2016-12-19T08:34:51.345Z,21.91
2016-12-19T08:36:01.301Z,21.91
2016-12-19T08:37:11.555Z,22.29
2016-12-19T08:38:21.189Z,22.29
2016-12-19T08:39:31.489Z,22.19
2016-12-19T08:40:41.777Z,21.91
2016-12-19T08:41:51.754Z,22.09
2016-12-19T08:43:02.033Z,22.09
2016-12-19T08:44:11.968Z,22.19
2016-12-19T08:45:22.233Z,22.29
2016-12-19T08:46:32.199Z,22.19
2016-12-19T08:47:42.178Z,22.29
2016-12-19T08:48:51.875Z,22.09
2016-12-19T08:50:02.156Z,22.09
2016-12-19T08:51:11.859Z,22.19
2016-12-19T08:52:22.163Z,21.91
2016-12-19T08:53:32.458Z,22
2016-12-19T08:54:42.421Z,22
2016-12-19T08:55:52.503Z,21.81
2016-12-19T08:57:02.454Z,22.09
2016-12-19T08:58:12.436Z,22.09
2016-12-19T08:59:22.713Z,22.09
2016-12-19T09:00:32.676Z,21.91
2016-12-19T09:01:42.680Z,22
2016-12-19T09:02:52.673Z,22
2016-12-19T09:04:02.626Z,22.19
2016-12-19T09:05:12.583Z,22
2016-12-19T09:06:22.864Z,22.19
2016-12-19T09:07:32.831Z,22.38
2016-12-19T09:08:42.783Z,22.38
2016-12-19T09:09:53.060Z,22.48
2016-12-19T09:11:03.377Z,22.58
2016-12-19T09:12:13.369Z,22.58
2016-12-19T09:13:23.025Z,22.67
2016-12-19T09:14:33.305Z,22.77
2016-12-19T09:15:43.707Z,22.67
2016-12-19T09:16:54.013Z,22.58
2016-12-19T09:18:03.359Z,22.86
2016-12-19T09:19:12.979Z,22.86
2016-12-19T09:20:23.257Z,22.77
2016-12-19T09:21:32.892Z,22.96
2016-12-19T09:22:42.520Z,22.86
2016-12-19T09:23:52.150Z,22.86
2016-12-19T09:25:02.136Z,22.86
2016-12-19T09:26:12.402Z,22.96
2016-12-19T09:27:22.354Z,22.96
2016-12-19T09:28:32.717Z,22.86
2016-12-19T09:29:42.971Z,22.86
2016-12-19T09:30:53.144Z,22.67
2016-12-19T09:32:03.110Z,22.96
2016-12-19T09:33:13.372Z,23.06
2016-12-19T09:34:23.627Z,23.06
2016-12-19T09:35:33.586Z,22.86
2016-12-19T09:36:43.557Z,22.96
2016-12-19T09:37:53.842Z,22.96
2016-12-19T09:39:04.127Z,22.96
2016-12-19T09:40:13.862Z,23.06
2016-12-19T09:41:24.131Z,22.96
2016-12-19T09:42:34.129Z,23.06
2016-12-19T09:43:44.175Z,23.06
2016-12-19T09:44:54.434Z,22.96
2016-12-19T09:46:04.713Z,22.96
2016-12-19T09:47:14.669Z,23.06
2016-12-19T09:48:24.627Z,22.96
2016-12-19T09:49:34.573Z,23.25
2016-12-19T09:50:44.202Z,23.44
2016-12-19T09:51:54.147Z,23.06
2016-12-19T09:53:04.089Z,23.15
2016-12-19T09:54:13.738Z,23.44
2016-12-19T09:55:24.007Z,23.35
2016-12-19T09:56:34.285Z,23.35
2016-12-19T09:57:43.903Z,23.44
2016-12-19T09:58:53.549Z,23.35
2016-12-19T10:00:03.168Z,23.25
2016-12-19T10:01:13.102Z,23.25
2016-12-19T10:02:22.733Z,23.15
2016-12-19T10:03:32.394Z,23.35
2016-12-19T10:04:42.358Z,23.25
2016-12-19T10:05:51.697Z,23.25
2016-12-19T10:07:00.439Z,23.63
2016-12-19T10:08:10.081Z,23.73
2016-12-19T10:09:19.783Z,23.73
2016-12-19T10:10:30.074Z,23.63
2016-12-19T10:11:39.709Z,23.73
2016-12-19T10:12:49.402Z,23.92
2016-12-19T10:13:59.658Z,23.83
2016-12-19T10:15:09.347Z,23.83
2016-12-19T10:16:19.269Z,23.83
2016-12-19T10:17:29.225Z,23.73
2016-12-19T10:18:38.877Z,23.73
2016-12-19T10:19:49.162Z,23.73
2016-12-19T10:20:59.098Z,23.73
2016-12-19T10:22:09.029Z,23.63
2016-12-19T10:23:18.977Z,23.73
2016-12-19T10:24:28.629Z,23.83
2016-12-19T10:25:38.610Z,23.73
2016-12-19T10:26:48.260Z,23.63
2016-12-19T10:27:57.915Z,23.63
2016-12-19T10:29:07.869Z,23.63
2016-12-19T10:30:17.516Z,23.63
2016-12-19T10:31:27.706Z,23.63
2016-12-19T10:32:37.346Z,23.54
2016-12-19T10:33:47.004Z,23.63
2016-12-19T10:34:56.972Z,23.83
2016-12-19T10:36:06.606Z,23.63
2016-12-19T10:37:16.557Z,23.83
2016-12-19T10:38:25.731Z,23.92
2016-12-19T10:39:36.034Z,23.92
2016-12-19T10:40:45.674Z,23.83
2016-12-19T10:41:55.340Z,23.92
2016-12-19T10:43:05.278Z,23.92
2016-12-19T10:44:15.545Z,23.73
2016-12-19T10:45:25.519Z,23.73
2016-12-19T10:46:36.069Z,23.83
2016-12-19T10:47:46.022Z,23.92
2016-12-19T10:48:56.291Z,23.54
2016-12-19T10:50:05.921Z,23.92
2016-12-19T10:51:16.196Z,23.83
2016-12-19T10:52:26.601Z,24.22
2016-12-19T10:53:36.563Z,24.3
2016-12-19T10:54:46.518Z,23.83
2016-12-19T10:55:56.511Z,24.3
2016-12-19T10:57:06.471Z,24.02
2016-12-19T10:58:16.420Z,23.92
2016-12-19T10:59:26.079Z,24.02
2016-12-19T11:00:36.025Z,24.13
2016-12-19T11:01:45.997Z,23.92
2016-12-19T11:02:56.078Z,23.92
2016-12-19T11:04:07.640Z,23.93
2016-12-19T11:05:17.886Z,24.21
2016-12-19T11:06:28.165Z,24.22
2016-12-19T11:07:37.803Z,23.92
2016-12-19T11:08:48.057Z,24.32
2016-12-19T11:09:57.720Z,24.13
2016-12-19T11:11:07.668Z,24.03
2016-12-19T11:12:17.864Z,24.03
2016-12-19T11:13:27.807Z,24.3
2016-12-19T11:14:38.060Z,24.03
2016-12-19T11:15:48.000Z,23.84
2016-12-19T11:16:57.667Z,23.93
2016-12-19T11:18:07.664Z,24.32
2016-12-19T11:19:17.725Z,23.93
2016-12-19T11:20:27.110Z,24.03
2016-12-19T11:21:37.099Z,24.32
2016-12-19T11:22:46.723Z,23.84
2016-12-19T11:23:56.032Z,23.84
2016-12-19T11:25:05.997Z,24.32
2016-12-19T11:26:16.003Z,23.93
2016-12-19T11:27:26.036Z,24.22
2016-12-19T11:28:36.299Z,24.51
2016-12-19T11:29:46.262Z,23.93
2016-12-19T11:30:56.636Z,24.51
2016-12-19T11:32:06.590Z,24.6
2016-12-19T11:33:16.262Z,24.8
2016-12-19T11:34:26.533Z,24.7
2016-12-19T11:35:36.794Z,24.88
2016-12-19T11:36:47.065Z,24.7
2016-12-19T11:37:57.032Z,24.8
2016-12-19T11:39:06.355Z,24.7
2016-12-19T11:40:16.001Z,24.79
2016-12-19T11:41:25.935Z,24.8
2016-12-19T11:42:35.571Z,24.7
2016-12-19T11:43:45.513Z,24.7
2016-12-19T11:44:55.457Z,24.8
2016-12-19T11:46:05.089Z,24.8
2016-12-19T11:47:15.252Z,24.8
2016-12-19T11:48:25.531Z,24.8
2016-12-19T11:49:35.171Z,24.88
2016-12-19T11:50:45.410Z,24.88
2016-12-19T11:51:55.660Z,24.7
2016-12-19T11:53:05.600Z,24.7
2016-12-19T11:54:16.167Z,24.7
2016-12-19T11:55:26.353Z,24.7
2016-12-19T11:56:36.311Z,24.99
2016-12-19T11:57:46.594Z,24.8
2016-12-19T11:58:56.837Z,24.22
2016-12-19T12:00:06.793Z,24.51
2016-12-19T12:01:16.441Z,24.61
2016-12-19T12:02:26.082Z,24.5
2016-12-19T12:03:36.244Z,24.5
2016-12-19T12:04:46.189Z,24.03
2016-12-19T12:05:55.827Z,24.4
2016-12-19T12:07:05.776Z,24.32
2016-12-19T12:08:16.038Z,24.8
2016-12-19T12:09:25.964Z,24.51
2016-12-19T12:10:35.597Z,24.8
2016-12-19T12:11:45.873Z,24.61
2016-12-19T12:12:55.493Z,24.8
2016-12-19T12:14:05.148Z,24.61
2016-12-19T12:15:14.784Z,24.7
2016-12-19T12:16:25.031Z,24.7
2016-12-19T12:17:34.668Z,24.9
2016-12-19T12:18:44.925Z,24.7
2016-12-19T12:19:54.598Z,24.9
2016-12-19T12:21:04.874Z,24.8
2016-12-19T12:22:15.531Z,24.9
2016-12-19T12:23:25.472Z,24.7
2016-12-19T12:24:35.411Z,24.9
2016-12-19T12:25:45.367Z,24.9
2016-12-19T12:26:55.058Z,24.61
2016-12-19T12:28:05.322Z,24.8
2016-12-19T12:29:15.585Z,24.9
2016-12-19T12:30:25.823Z,24.9
2016-12-19T12:31:36.100Z,24.8
2016-12-19T12:32:45.426Z,24.88
2016-12-19T12:33:55.393Z,24.9
2016-12-19T12:35:05.256Z,25.28
2016-12-19T12:36:15.239Z,24.9
2016-12-19T12:37:25.173Z,25.18
2016-12-19T12:38:35.422Z,24.8
2016-12-19T12:39:45.790Z,24.9
2016-12-19T12:40:56.159Z,24.9
2016-12-19T12:42:06.405Z,24.7
2016-12-19T12:43:16.661Z,24.7
2016-12-19T12:44:26.613Z,24.61
2016-12-19T12:45:36.261Z,24.32
2016-12-19T12:46:46.268Z,24.03
2016-12-19T12:47:56.517Z,24.22
2016-12-19T12:49:06.152Z,24.32
2016-12-19T12:50:16.406Z,24.32
2016-12-19T12:51:26.689Z,24.32
2016-12-19T12:52:36.693Z,24.51
2016-12-19T12:53:46.344Z,24.32
2016-12-19T12:54:56.277Z,24.51
2016-12-19T12:56:06.224Z,25.09
2016-12-19T12:57:16.469Z,25.67
2016-12-19T12:58:26.423Z,26.43
2016-12-19T12:59:35.132Z,26.24
2016-12-19T13:00:45.065Z,26.92
2016-12-19T13:01:55.007Z,27.11
2016-12-19T13:03:04.959Z,27.49
2016-12-19T13:04:14.975Z,27.3
2016-12-19T13:05:24.650Z,28.07
2016-12-19T13:06:34.285Z,28.26
2016-12-19T13:07:44.253Z,28.45
2016-12-19T13:08:53.906Z,28.16
2016-12-19T13:10:03.868Z,28.07
2016-12-19T13:11:14.117Z,28.07
2016-12-19T13:12:24.395Z,28.36
2016-12-19T13:13:34.341Z,28.26
2016-12-19T13:14:44.609Z,28.07
2016-12-19T13:15:54.236Z,28.16
2016-12-19T13:17:03.878Z,28.26
2016-12-19T13:18:14.112Z,27.87
2016-12-19T13:19:24.358Z,28.07
2016-12-19T13:20:34.306Z,28.16
2016-12-19T13:21:44.277Z,28.16
2016-12-19T13:22:54.522Z,28.26
2016-12-19T13:24:04.768Z,28.16
2016-12-19T13:25:15.009Z,28.16
2016-12-19T13:26:25.270Z,28.16
2016-12-19T13:27:35.216Z,28.16
2016-12-19T13:28:44.852Z,28.16
2016-12-19T13:29:54.478Z,28.16
2016-12-19T13:31:04.443Z,28.74
2016-12-19T13:32:14.408Z,28.64
2016-12-19T13:33:23.716Z,29.14
2016-12-19T13:34:34.001Z,29.61
2016-12-19T13:35:44.244Z,29.22
2016-12-19T13:36:54.489Z,29.24
2016-12-19T13:38:04.125Z,29.33
2016-12-19T13:39:14.106Z,29.24
2016-12-19T13:40:23.440Z,29.51
2016-12-19T13:41:32.756Z,29.03
2016-12-19T13:42:42.384Z,29.03
2016-12-19T13:43:52.640Z,28.93
2016-12-19T13:45:02.590Z,28.84
2016-12-19T13:46:12.527Z,28.93
2016-12-19T13:47:22.166Z,28.95
2016-12-19T13:48:32.096Z,29.24
2016-12-19T13:49:41.754Z,29.04
2016-12-19T13:50:51.696Z,28.85
2016-12-19T13:52:01.632Z,28.66
2016-12-19T13:53:10.976Z,28.47
2016-12-19T13:54:21.251Z,28.08
2016-12-19T13:55:30.865Z,28.16
2016-12-19T13:56:40.509Z,28.16
2016-12-19T13:57:50.503Z,28.47
2016-12-19T13:59:00.130Z,28.27
2016-12-19T14:00:10.105Z,28.56
2016-12-19T14:01:20.080Z,28.18
2016-12-19T14:02:29.714Z,28.18
2016-12-19T14:03:39.333Z,29.14
2016-12-19T14:04:48.997Z,28.66
2016-12-19T14:05:58.625Z,28.74
2016-12-19T14:07:08.266Z,29.52
2016-12-19T14:08:18.538Z,29.04
2016-12-19T14:09:28.789Z,29.33
2016-12-19T14:10:38.728Z,29.04
2016-12-19T14:11:48.672Z,29.04
2016-12-19T14:12:58.651Z,28.66
2016-12-19T14:14:08.908Z,28.66
2016-12-19T14:15:18.849Z,28.08
2016-12-19T14:16:29.134Z,27.98
2016-12-19T14:17:39.386Z,28.08
2016-12-19T14:18:49.339Z,28.08
2016-12-19T14:19:59.275Z,28.08
2016-12-19T14:21:09.228Z,27.89
2016-12-19T14:22:19.159Z,28.18
2016-12-19T14:23:29.430Z,28.18
2016-12-19T14:24:39.380Z,28.18
2016-12-19T14:25:49.325Z,28.18
2016-12-19T14:26:59.593Z,27.98
2016-12-19T14:28:08.915Z,27.89
2016-12-19T14:29:19.168Z,27.89
2016-12-19T14:30:29.128Z,27.31
2016-12-19T14:31:39.097Z,28.08
2016-12-19T14:32:48.720Z,28.18
2016-12-19T14:33:58.684Z,28.18
2016-12-19T14:35:08.994Z,27.89
2016-12-19T14:36:42.211Z,27.98
2016-12-19T14:37:52.454Z,28.08
2016-12-19T14:39:02.095Z,28.27
2016-12-19T14:40:11.407Z,27.89
2016-12-19T14:41:21.661Z,27.89
2016-12-19T14:42:31.604Z,27.98
2016-12-19T14:43:41.843Z,27.7
2016-12-19T14:44:52.089Z,27.4
2016-12-19T14:46:02.057Z,27.6
2016-12-19T14:47:11.672Z,27.5
2016-12-19T14:48:21.657Z,27.22
2016-12-19T14:49:31.620Z,27.31
2016-12-19T14:50:41.567Z,27.49
2016-12-19T14:51:51.203Z,27.4
2016-12-19T14:53:01.461Z,27.5
2016-12-19T14:54:11.407Z,27.4
2016-12-19T14:55:21.673Z,27.02
2016-12-19T14:56:31.316Z,27.6
2016-12-19T14:57:40.980Z,27.31
2016-12-19T14:58:50.312Z,27.22
2016-12-19T15:00:00.258Z,27.22
2016-12-19T15:01:09.571Z,27.39
2016-12-19T15:02:19.528Z,27.11
2016-12-19T15:03:28.549Z,27.22
2016-12-19T15:04:38.511Z,27.02